Time,TemperatureF,DewpointF,PressureIn,WindDirection,WindDirectionDegrees,WindSpeedMPH,WindSpeedGustMPH,Humidity,HourlyPrecipIn,Conditions,Clouds,dailyrainin,SolarRadiationWatts/m^2,SoftwareType,DateUTC
2013-03-27 00:01:00,32.0,24.3,30.01,NNW,346,0.0,0.0,73,0.00,BKN,BKN,0.00,0.0,WeatherDisplay:10.37,2013-03-27 06:01:00,
2013-03-27 00:08:00,32.0,24.6,29.98,NNW,346,0.0,0.0,74,0.00,BKN,BKN,0.00,0.0,WeatherDisplay:10.37,2013-03-27 06:08:00,
2013-03-27 00:15:00,32.0,24.6,29.98,NNW,346,0.0,0.0,74,0.00,BKN,BKN,0.00,0.0,WeatherDisplay:10.37,2013-03-27 06:15:00,
2013-03-27 00:22:00,31.9,24.6,29.98,NNW,345,0.0,0.0,74,0.00,BKN,BKN,0.00,0.0,WeatherDisplay:10.37,2013-03-27 06:22:00,
2013-03-27 00:29:00,31.7,24.4,29.99,NNW,345,0.0,0.0,74,0.00,BKN,BKN,0.00,0.0,WeatherDisplay:10.37,2013-03-27 06:29:00,
2013-03-27 00:36:00,31.6,24.3,29.99,NNW,346,0.0,0.0,74,0.00,BKN,BKN,0.00,0.0,WeatherDisplay:10.37,2013-03-27 06:36:00,
2013-03-27 00:43:00,31.5,24.2,29.98,NNW,346,0.0,0.0,74,0.00,BKN,BKN,0.00,0.0,WeatherDisplay:10.37,2013-03-27 06:43:00,
2013-03-27 00:50:00,31.4,24.1,29.99,NNW,346,0.0,0.0,74,0.00,BKN,BKN,0.00,0.0,WeatherDisplay:10.37,2013-03-27 06:50:00,
2013-03-27 00:57:00,31.2,24.2,29.99,NNW,345,0.0,0.0,75,0.00,BKN,BKN,0.00,0.0,WeatherDisplay:10.37,2013-03-27 06:57:00,
2013-03-27 01:04:00,31.0,24.0,29.98,NNW,345,0.0,0.0,75,0.00,BKN,BKN,0.00,0.0,WeatherDisplay:10.37,2013-03-27 07:04:00,
2013-03-27 01:11:00,30.8,23.8,29.98,NNW,345,0.0,0.0,75,0.00,BKN,BKN,0.00,0.0,WeatherDisplay:10.37,2013-03-27 07:11:00,
2013-03-27 01:18:00,30.6,23.6,29.98,NNW,346,0.0,0.0,75,0.00,BKN,BKN,0.00,0.0,WeatherDisplay:10.37,2013-03-27 07:18:00,
2013-03-27 01:25:00,30.3,23.3,29.98,NNW,345,0.0,0.0,75,0.00,BKN,BKN,0.00,0.0,WeatherDisplay:10.37,2013-03-27 07:25:00,
2013-03-27 01:32:00,30.2,23.5,29.97,NNW,346,0.0,0.0,76,0.00,BKN,BKN,0.00,0.0,WeatherDisplay:10.37,2013-03-27 07:32:00,
2013-03-27 01:39:00,30.1,23.4,29.97,NNW,346,0.0,0.0,76,0.00,BKN,BKN,0.00,0.0,WeatherDisplay:10.37,2013-03-27 07:39:00,
2013-03-27 01:46:00,30.0,23.7,29.96,NNW,346,0.0,0.0,77,0.00,OVC,OVC,0.00,0.0,WeatherDisplay:10.37,2013-03-27 07:46:00,
2013-03-27 01:53:00,29.9,23.6,29.97,NNW,345,0.0,0.0,77,0.00,OVC,OVC,0.00,0.0,WeatherDisplay:10.37,2013-03-27 07:53:00,
2013-03-27 02:00:00,29.8,23.5,29.97,NNW,346,0.0,0.0,77,0.00,OVC,OVC,0.00,0.0,WeatherDisplay:10.37,2013-03-27 08:00:00,
2013-03-27 02:07:00,29.7,23.7,29.96,NNW,346,0.0,0.0,78,0.00,OVC,OVC,0.00,0.0,WeatherDisplay:10.37,2013-03-27 08:07:00,
2013-03-27 02:14:00,29.6,23.6,29.96,NNW,345,0.0,0.0,78,0.00,OVC,OVC,0.00,0.0,WeatherDisplay:10.37,2013-03-27 08:14:00,
2013-03-27 02:21:00,29.6,23.6,29.96,NNW,346,0.0,0.0,78,0.00,OVC,OVC,0.00,0.0,WeatherDisplay:10.37,2013-03-27 08:21:00,
2013-03-27 02:28:00,29.6,23.9,29.95,NNW,346,0.0,0.0,79,0.00,OVC,OVC,0.00,0.0,WeatherDisplay:10.37,2013-03-27 08:28:00,
2013-03-27 02:35:00,29.6,23.6,29.96,NNW,346,0.0,0.0,78,0.00,BKN,BKN,0.00,0.0,WeatherDisplay:10.37,2013-03-27 08:35:00,
2013-03-27 02:42:00,29.5,23.8,29.95,NNW,346,0.0,0.0,79,0.00,BKN,BKN,0.00,0.0,WeatherDisplay:10.37,2013-03-27 08:42:00,
2013-03-27 02:49:00,29.5,23.8,29.96,NNW,346,0.0,0.0,79,0.00,BKN,BKN,0.00,0.0,WeatherDisplay:10.37,2013-03-27 08:49:00,
2013-03-27 02:56:00,29.5,23.8,29.95,NNW,346,0.0,0.0,79,0.00,BKN,BKN,0.00,0.0,WeatherDisplay:10.37,2013-03-27 08:56:00,
2013-03-27 03:03:00,29.5,23.8,29.94,NNW,346,0.0,0.0,79,0.00,BKN,BKN,0.00,0.0,WeatherDisplay:10.37,2013-03-27 09:03:00,
2013-03-27 03:10:00,29.5,23.8,29.95,NNW,346,0.0,0.0,79,0.00,BKN,BKN,0.00,0.0,WeatherDisplay:10.37,2013-03-27 09:10:00,
2013-03-27 03:17:00,29.4,23.7,29.97,NNW,346,0.0,0.0,79,0.00,BKN,BKN,0.00,0.0,WeatherDisplay:10.37,2013-03-27 09:17:00,
2013-03-27 03:24:00,29.3,23.6,29.97,NNW,346,0.0,0.0,79,0.00,BKN,BKN,0.00,0.0,WeatherDisplay:10.37,2013-03-27 09:24:00,
2013-03-27 03:31:00,29.3,23.6,29.97,NNW,346,0.0,0.0,79,0.00,BKN,BKN,0.00,0.0,WeatherDisplay:10.37,2013-03-27 09:31:00,
2013-03-27 03:38:00,29.3,23.9,29.97,NNW,346,0.0,0.0,80,0.00,BKN,BKN,0.00,0.0,WeatherDisplay:10.37,2013-03-27 09:38:00,
2013-03-27 03:45:00,29.2,23.8,29.97,NNW,346,0.0,0.0,80,0.00,BKN,BKN,0.00,0.0,WeatherDisplay:10.37,2013-03-27 09:45:00,
2013-03-27 03:52:00,29.1,23.7,29.96,NNW,346,0.0,0.0,80,0.00,BKN,BKN,0.00,0.0,WeatherDisplay:10.37,2013-03-27 09:52:00,
2013-03-27 03:59:00,29.1,23.7,29.96,NNW,345,0.0,0.0,80,0.00,BKN,BKN,0.00,0.0,WeatherDisplay:10.37,2013-03-27 09:59:00,
2013-03-27 04:06:00,29.0,23.6,29.97,NNW,346,0.0,0.0,80,0.00,BKN,BKN,0.00,0.0,WeatherDisplay:10.37,2013-03-27 10:06:00,
2013-03-27 04:13:00,28.9,23.5,29.97,NNW,345,0.6,2.0,80,0.00,BKN,BKN,0.00,0.0,WeatherDisplay:10.37,2013-03-27 10:13:00,
2013-03-27 04:20:00,28.8,23.4,29.98,NNW,345,0.0,0.0,80,0.00,BKN,BKN,0.00,0.0,WeatherDisplay:10.37,2013-03-27 10:20:00,
2013-03-27 04:27:00,28.8,23.4,29.99,NNW,346,0.0,0.0,80,0.00,BKN,BKN,0.00,0.0,WeatherDisplay:10.37,2013-03-27 10:27:00,
2013-03-27 04:34:00,28.6,23.2,29.99,NNW,346,0.0,0.0,80,0.00,BKN,BKN,0.00,0.0,WeatherDisplay:10.37,2013-03-27 10:34:00,
2013-03-27 04:41:00,28.5,23.1,30.00,NNW,345,0.0,0.0,80,0.00,BKN,BKN,0.00,0.0,WeatherDisplay:10.37,2013-03-27 10:41:00,
2013-03-27 04:48:00,28.5,23.4,30.00,NNW,346,0.0,0.0,81,0.00,BKN,BKN,0.00,0.0,WeatherDisplay:10.37,2013-03-27 10:48:00,
2013-03-27 04:55:00,28.4,23.3,30.01,NNW,345,1.8,3.4,81,0.00,BKN,BKN,0.00,0.0,WeatherDisplay:10.37,2013-03-27 10:55:00,
2013-03-27 05:02:00,28.5,23.4,30.00,NNW,346,0.5,1.0,81,0.00,BKN,BKN,0.00,0.0,WeatherDisplay:10.37,2013-03-27 11:02:00,
2013-03-27 05:08:00,28.6,23.5,30.04,NNW,346,0.3,0.0,81,0.00,BKN,BKN,0.00,0.0,WeatherDisplay:10.37,2013-03-27 11:08:00,
2013-03-27 05:15:00,28.7,23.9,30.05,NNW,346,0.9,1.1,82,0.00,BKN,BKN,0.00,0.0,WeatherDisplay:10.37,2013-03-27 11:15:00,
2013-03-27 05:22:00,28.9,24.1,30.06,NNW,342,0.6,2.0,82,0.00,BKN,BKN,0.00,0.0,WeatherDisplay:10.37,2013-03-27 11:22:00,
2013-03-27 05:29:00,29.1,24.3,30.07,NNW,342,0.2,1.1,82,0.00,BKN,BKN,0.00,0.0,WeatherDisplay:10.37,2013-03-27 11:29:00,
2013-03-27 05:36:00,29.3,24.5,30.07,NNW,327,2.8,3.0,82,0.00,BKN,BKN,0.00,0.0,WeatherDisplay:10.37,2013-03-27 11:36:00,
2013-03-27 05:43:00,29.5,24.7,30.06,NNW,328,0.3,2.3,82,0.00,BKN,BKN,0.00,0.0,WeatherDisplay:10.37,2013-03-27 11:43:00,
2013-03-27 05:50:00,29.7,24.9,30.06,West,271,0.0,0.0,82,0.00,BKN,BKN,0.00,0.0,WeatherDisplay:10.37,2013-03-27 11:50:00,
2013-03-27 05:57:00,29.9,24.8,30.05,SE,133,4.1,4.1,81,0.00,BKN,BKN,0.00,0.0,WeatherDisplay:10.37,2013-03-27 11:57:00,
2013-03-27 06:04:00,30.1,25.0,30.08,SE,141,1.0,3.4,81,0.00,BKN,BKN,0.00,0.0,WeatherDisplay:10.37,2013-03-27 12:04:00,
2013-03-27 06:11:00,30.1,24.7,30.08,SE,141,2.7,3.4,80,0.00,BKN,BKN,0.00,0.0,WeatherDisplay:10.37,2013-03-27 12:11:00,
2013-03-27 06:18:00,30.1,24.7,30.09,SE,141,0.4,1.1,80,0.00,BKN,BKN,0.00,0.0,WeatherDisplay:10.37,2013-03-27 12:18:00,
2013-03-27 06:25:00,30.1,24.7,30.09,SE,141,0.7,3.4,80,0.00,BKN,BKN,0.00,0.0,WeatherDisplay:10.37,2013-03-27 12:25:00,
2013-03-27 06:32:00,30.1,24.7,30.09,SE,141,2.6,3.4,80,0.00,BKN,BKN,0.00,0.0,WeatherDisplay:10.37,2013-03-27 12:32:00,
2013-03-27 06:39:00,30.2,24.8,30.08,SE,140,1.3,4.6,80,0.00,BKN,BKN,0.00,0.0,WeatherDisplay:10.37,2013-03-27 12:39:00,
2013-03-27 06:46:00,30.2,24.8,30.09,SE,140,2.2,4.0,80,0.00,BKN,BKN,0.00,0.0,WeatherDisplay:10.37,2013-03-27 12:46:00,
2013-03-27 06:53:00,30.2,24.8,30.09,SE,142,3.0,4.6,80,0.00,BKN,BKN,0.00,0.0,WeatherDisplay:10.37,2013-03-27 12:53:00,
2013-03-27 07:00:00,30.2,24.8,30.10,SE,142,1.4,2.3,80,0.00,BKN,BKN,0.00,0.0,WeatherDisplay:10.37,2013-03-27 13:00:00,
2013-03-27 07:07:00,30.2,24.8,30.11,SE,142,1.2,3.4,80,0.00,BKN,BKN,0.00,7.0,WeatherDisplay:10.37,2013-03-27 13:07:00,
2013-03-27 07:14:00,30.3,24.9,30.11,SE,142,0.7,3.4,80,0.00,BKN,BKN,0.00,11.0,WeatherDisplay:10.37,2013-03-27 13:14:00,
2013-03-27 07:21:00,30.2,24.8,30.11,SE,142,0.0,0.0,80,0.00,BKN,BKN,0.00,12.0,WeatherDisplay:10.37,2013-03-27 13:21:00,
2013-03-27 07:28:00,30.2,24.8,30.11,SE,144,1.9,2.3,80,0.00,BKN,BKN,0.00,14.0,WeatherDisplay:10.37,2013-03-27 13:28:00,
2013-03-27 07:35:00,30.1,24.7,30.11,SE,144,0.0,0.0,80,0.00,BKN,BKN,0.00,18.0,WeatherDisplay:10.37,2013-03-27 13:35:00,
2013-03-27 07:42:00,30.1,24.7,30.12,SE,144,0.0,0.0,80,0.00,BKN,BKN,0.00,49.0,WeatherDisplay:10.37,2013-03-27 13:42:00,
2013-03-27 07:49:00,30.1,24.7,30.12,SE,144,0.0,0.0,80,0.00,BKN,BKN,0.00,156.0,WeatherDisplay:10.37,2013-03-27 13:49:00,
2013-03-27 07:56:00,30.6,25.5,30.12,SE,144,2.3,3.4,81,0.00,BKN,BKN,0.00,181.0,WeatherDisplay:10.37,2013-03-27 13:56:00,
2013-03-27 08:03:00,31.3,26.1,30.12,SE,144,0.4,3.4,81,0.00,SCT,SCT,0.00,206.0,WeatherDisplay:10.37,2013-03-27 14:03:00,
2013-03-27 08:10:00,31.9,26.4,30.12,SSE,160,0.0,1.1,80,0.00,SCT,SCT,0.00,227.0,WeatherDisplay:10.37,2013-03-27 14:10:00,
2013-03-27 08:17:00,33.0,27.2,30.11,SSE,160,0.9,1.1,79,0.00,SCT,SCT,0.00,255.0,WeatherDisplay:10.37,2013-03-27 14:17:00,
2013-03-27 08:24:00,33.7,27.3,30.11,SSE,165,0.0,2.3,77,0.00,SCT,SCT,0.00,279.0,WeatherDisplay:10.37,2013-03-27 14:24:00,
2013-03-27 08:31:00,34.4,27.6,30.12,SSE,165,0.5,2.3,76,0.00,SCT,SCT,0.00,304.0,WeatherDisplay:10.37,2013-03-27 14:31:00,
2013-03-27 08:38:00,35.2,27.4,30.10,SSE,165,1.3,2.3,73,0.00,SCT,SCT,0.00,329.0,WeatherDisplay:10.37,2013-03-27 14:38:00,
2013-03-27 08:45:00,35.9,27.4,30.10,SSE,168,1.6,3.4,71,0.00,SCT,SCT,0.00,352.0,WeatherDisplay:10.37,2013-03-27 14:45:00,
2013-03-27 08:52:00,36.8,27.9,30.09,SSE,168,1.3,2.3,70,0.00,SCT,SCT,0.00,378.0,WeatherDisplay:10.37,2013-03-27 14:52:00,
2013-03-27 08:59:00,37.4,27.4,30.10,South,172,0.2,1.1,67,0.00,SCT,SCT,0.00,399.0,WeatherDisplay:10.37,2013-03-27 14:59:00,
2013-03-27 09:06:00,38.4,28.0,30.10,South,172,0.7,2.3,66,0.00,BKN,BKN,0.00,422.0,WeatherDisplay:10.37,2013-03-27 15:06:00,
2013-03-27 09:11:00,38.8,28.0,30.10,South,172,0.2,2.3,65,0.00,BKN,BKN,0.00,443.0,WeatherDisplay:10.37,2013-03-27 15:11:00,
2013-03-27 09:16:00,39.5,28.3,30.08,South,173,1.3,2.3,64,0.00,BKN,BKN,0.00,461.0,WeatherDisplay:10.37,2013-03-27 15:16:00,
2013-03-27 09:21:00,39.9,28.7,30.08,SSE,152,3.9,4.6,64,0.00,BKN,BKN,0.00,478.0,WeatherDisplay:10.37,2013-03-27 15:21:00,
2013-03-27 09:27:00,40.3,28.7,30.08,SSE,149,1.2,2.3,63,0.00,BKN,BKN,0.00,497.0,WeatherDisplay:10.37,2013-03-27 15:27:00,
2013-03-27 09:34:00,41.1,29.1,30.08,SE,132,1.6,3.4,62,0.00,BKN,BKN,0.00,520.0,WeatherDisplay:10.37,2013-03-27 15:34:00,
2013-03-27 09:41:00,41.6,29.1,30.07,SE,132,1.3,3.4,61,0.00,BKN,BKN,0.00,540.0,WeatherDisplay:10.37,2013-03-27 15:41:00,
2013-03-27 09:48:00,41.8,28.9,30.07,SE,136,0.7,3.4,60,0.00,BKN,BKN,0.00,561.0,WeatherDisplay:10.37,2013-03-27 15:48:00,
2013-03-27 09:55:00,42.5,29.6,30.08,SSE,157,0.8,4.6,60,0.00,BKN,BKN,0.00,587.0,WeatherDisplay:10.37,2013-03-27 15:55:00,
2013-03-27 10:02:00,43.0,29.2,30.07,SSE,158,1.2,3.4,58,0.00,BKN,BKN,0.00,606.0,WeatherDisplay:10.37,2013-03-27 16:02:00,
2013-03-27 10:09:00,43.4,29.2,30.08,SSE,158,1.1,3.4,57,0.00,BKN,BKN,0.00,624.0,WeatherDisplay:10.37,2013-03-27 16:09:00,
2013-03-27 10:16:00,43.5,28.4,30.08,SSE,158,0.0,0.0,55,0.00,SCT,SCT,0.00,645.0,WeatherDisplay:10.37,2013-03-27 16:16:00,
2013-03-27 10:23:00,44.0,28.4,30.08,SSE,153,0.9,3.4,54,0.00,SCT,SCT,0.00,663.0,WeatherDisplay:10.37,2013-03-27 16:23:00,
2013-03-27 10:30:00,44.4,29.2,30.07,SSE,152,1.4,3.4,55,0.00,SCT,SCT,0.00,680.0,WeatherDisplay:10.37,2013-03-27 16:30:00,
2013-03-27 10:37:00,45.4,29.3,30.06,SSE,152,2.8,4.6,53,0.00,SCT,SCT,0.00,694.0,WeatherDisplay:10.37,2013-03-27 16:37:00,
2013-03-27 10:44:00,45.4,29.3,30.06,ESE,114,2.5,3.4,53,0.00,SCT,SCT,0.00,719.0,WeatherDisplay:10.37,2013-03-27 16:44:00,
2013-03-27 10:51:00,45.5,28.4,30.06,ESE,112,0.0,0.0,51,0.00,SCT,SCT,0.00,731.0,WeatherDisplay:10.37,2013-03-27 16:51:00,
2013-03-27 10:58:00,45.8,28.7,30.06,SSW,194,1.1,4.0,51,0.00,SCT,SCT,0.00,747.0,WeatherDisplay:10.37,2013-03-27 16:58:00,
2013-03-27 11:05:00,46.0,27.9,30.06,SSW,211,0.0,1.1,49,0.00,SCT,SCT,0.00,765.0,WeatherDisplay:10.37,2013-03-27 17:05:00,
2013-03-27 11:12:00,47.0,28.3,30.06,ESE,113,1.4,3.4,48,0.00,SCT,SCT,0.00,773.0,WeatherDisplay:10.37,2013-03-27 17:12:00,
2013-03-27 11:19:00,47.3,28.6,30.06,ESE,109,0.0,2.3,48,0.00,SCT,SCT,0.00,786.0,WeatherDisplay:10.37,2013-03-27 17:19:00,
2013-03-27 11:26:00,47.5,28.8,30.05,ESE,106,1.2,3.4,48,0.00,SCT,SCT,0.00,802.0,WeatherDisplay:10.37,2013-03-27 17:26:00,
2013-03-27 11:33:00,48.0,28.7,30.05,NE,53,2.1,4.6,47,0.00,SCT,SCT,0.00,814.0,WeatherDisplay:10.37,2013-03-27 17:33:00,
2013-03-27 11:40:00,48.8,29.4,30.04,NNE,28,3.2,4.6,47,0.00,SCT,SCT,0.00,840.0,WeatherDisplay:10.37,2013-03-27 17:40:00,
2013-03-27 11:47:00,49.3,30.4,30.04,NNE,22,2.3,4.6,48,0.00,SCT,SCT,0.00,854.0,WeatherDisplay:10.37,2013-03-27 17:47:00,
2013-03-27 11:54:00,49.5,30.1,30.04,East,98,1.6,3.4,47,0.00,SCT,SCT,0.00,842.0,WeatherDisplay:10.37,2013-03-27 17:54:00,
2013-03-27 12:01:00,49.9,29.9,30.03,SE,136,3.0,5.8,46,0.00,SCT,SCT,0.00,902.0,WeatherDisplay:10.37,2013-03-27 18:01:00,
2013-03-27 12:08:00,50.4,29.8,30.04,NNE,19,1.8,5.0,45,0.00,SCT,SCT,0.00,902.0,WeatherDisplay:10.37,2013-03-27 18:08:00,
2013-03-27 12:15:00,50.3,29.7,30.04,ENE,78,1.9,3.4,45,0.00,FEW,FEW,0.00,840.0,WeatherDisplay:10.37,2013-03-27 18:15:00,
2013-03-27 12:22:00,50.9,30.3,30.02,North,355,4.5,6.9,45,0.00,FEW,FEW,0.00,863.0,WeatherDisplay:10.37,2013-03-27 18:22:00,
2013-03-27 12:29:00,50.8,29.6,30.02,ENE,76,2.9,4.6,44,0.00,FEW,FEW,0.00,874.0,WeatherDisplay:10.37,2013-03-27 18:29:00,
2013-03-27 12:36:00,50.7,30.7,30.02,NE,43,2.6,3.4,46,0.00,FEW,FEW,0.00,870.0,WeatherDisplay:10.37,2013-03-27 18:36:00,
2013-03-27 12:43:00,51.1,31.0,30.02,North,355,1.1,3.4,46,0.00,FEW,FEW,0.00,874.0,WeatherDisplay:10.37,2013-03-27 18:43:00,
2013-03-27 12:50:00,52.0,31.8,30.02,ENE,61,0.5,4.6,46,0.00,FEW,FEW,0.00,872.0,WeatherDisplay:10.37,2013-03-27 18:50:00,
2013-03-27 12:57:00,52.4,32.7,30.01,East,84,3.9,5.8,47,0.00,FEW,FEW,0.00,877.0,WeatherDisplay:10.37,2013-03-27 18:57:00,
2013-03-27 13:04:00,52.6,31.8,30.02,East,90,1.0,3.4,45,0.00,FEW,FEW,0.00,881.0,WeatherDisplay:10.37,2013-03-27 19:04:00,
2013-03-27 13:11:00,52.8,33.1,30.01,ENE,78,2.7,4.6,47,0.00,FEW,FEW,0.00,884.0,WeatherDisplay:10.37,2013-03-27 19:11:00,
2013-03-27 13:18:00,52.4,31.7,30.01,ENE,60,0.9,3.4,45,0.00,FEW,FEW,0.00,870.0,WeatherDisplay:10.37,2013-03-27 19:18:00,
2013-03-27 13:25:00,52.8,33.1,30.00,ENE,61,2.7,3.4,47,0.00,FEW,FEW,0.00,870.0,WeatherDisplay:10.37,2013-03-27 19:25:00,
2013-03-27 13:32:00,53.1,32.3,30.01,SE,133,3.4,5.8,45,0.00,FEW,FEW,0.00,870.0,WeatherDisplay:10.37,2013-03-27 19:32:00,
2013-03-27 13:39:00,53.4,32.6,30.01,ENE,63,3.9,8.1,45,0.00,FEW,FEW,0.00,865.0,WeatherDisplay:10.37,2013-03-27 19:39:00,
2013-03-27 13:46:00,53.5,32.1,29.99,NNE,25,0.0,1.1,44,0.00,FEW,FEW,0.00,863.0,WeatherDisplay:10.37,2013-03-27 19:46:00,
2013-03-27 13:53:00,54.5,32.4,29.99,East,87,2.2,4.6,43,0.00,FEW,FEW,0.00,863.0,WeatherDisplay:10.37,2013-03-27 19:53:00,
2013-03-27 14:00:00,54.3,31.1,29.99,ENE,62,1.2,4.6,41,0.00,FEW,FEW,0.00,854.0,WeatherDisplay:10.37,2013-03-27 20:00:00,
2013-03-27 14:07:00,54.6,31.9,29.99,NE,55,1.2,4.6,42,0.00,FEW,FEW,0.00,842.0,WeatherDisplay:10.37,2013-03-27 20:07:00,
2013-03-27 14:14:00,55.0,32.3,29.98,NNE,24,4.0,6.9,42,0.00,FEW,FEW,0.00,844.0,WeatherDisplay:10.37,2013-03-27 20:14:00,
2013-03-27 14:21:00,55.3,32.0,29.98,NNE,33,4.9,5.8,41,0.00,FEW,FEW,0.00,830.0,WeatherDisplay:10.37,2013-03-27 20:21:00,
2013-03-27 14:28:00,55.4,32.1,29.98,NNE,29,1.0,4.0,41,0.00,FEW,FEW,0.00,816.0,WeatherDisplay:10.37,2013-03-27 20:28:00,
2013-03-27 14:35:00,55.6,31.6,29.97,NE,49,1.7,5.8,40,0.00,FEW,FEW,0.00,810.0,WeatherDisplay:10.37,2013-03-27 20:35:00,
2013-03-27 14:42:00,56.0,33.2,29.96,East,82,2.6,5.8,42,0.00,FEW,FEW,0.00,791.0,WeatherDisplay:10.37,2013-03-27 20:42:00,
2013-03-27 14:49:00,56.7,33.2,29.96,ESE,110,3.3,5.8,41,0.00,FEW,FEW,0.00,779.0,WeatherDisplay:10.37,2013-03-27 20:49:00,
2013-03-27 14:56:00,56.7,33.8,29.96,NE,56,2.4,3.4,42,0.00,FEW,FEW,0.00,770.0,WeatherDisplay:10.37,2013-03-27 20:56:00,
2013-03-27 15:03:00,56.7,32.6,29.95,East,89,4.4,10.3,40,0.00,FEW,FEW,0.00,754.0,WeatherDisplay:10.37,2013-03-27 21:03:00,
2013-03-27 15:10:00,56.5,33.1,29.95,ESE,103,2.5,10.3,41,0.00,FEW,FEW,0.00,742.0,WeatherDisplay:10.37,2013-03-27 21:10:00,
2013-03-27 15:17:00,56.9,32.8,29.95,ENE,74,1.8,4.6,40,0.00,FEW,FEW,0.00,724.0,WeatherDisplay:10.37,2013-03-27 21:17:00,
2013-03-27 15:24:00,57.0,32.9,29.95,NNE,31,4.2,6.9,40,0.00,FEW,FEW,0.00,714.0,WeatherDisplay:10.37,2013-03-27 21:24:00,
2013-03-27 15:31:00,57.0,32.3,29.95,NE,55,4.3,9.2,39,0.00,FEW,FEW,0.00,694.0,WeatherDisplay:10.37,2013-03-27 21:31:00,
2013-03-27 15:38:00,57.5,32.7,29.95,NE,42,4.9,10.3,39,0.00,FEW,FEW,0.00,679.0,WeatherDisplay:10.37,2013-03-27 21:38:00,
2013-03-27 15:45:00,57.3,32.5,29.95,ENE,65,6.7,11.5,39,0.00,FEW,FEW,0.00,664.0,WeatherDisplay:10.37,2013-03-27 21:45:00,
2013-03-27 15:52:00,57.3,32.5,29.95,ENE,78,4.7,8.0,39,0.00,FEW,FEW,0.00,613.0,WeatherDisplay:10.37,2013-03-27 21:52:00,
2013-03-27 15:59:00,56.8,32.7,29.95,NE,50,4.5,7.0,40,0.00,FEW,FEW,0.00,278.0,WeatherDisplay:10.37,2013-03-27 21:59:00,
2013-03-27 16:06:00,56.5,33.1,29.94,NE,51,7.3,9.2,41,0.00,SCT,SCT,0.00,613.0,WeatherDisplay:10.37,2013-03-27 22:06:00,
2013-03-27 16:13:00,56.6,33.2,29.94,East,90,5.5,8.1,41,0.00,SCT,SCT,0.00,555.0,WeatherDisplay:10.37,2013-03-27 22:13:00,
2013-03-27 16:20:00,57.3,33.2,29.94,NE,40,3.7,4.0,40,0.00,SCT,SCT,0.00,338.0,WeatherDisplay:10.37,2013-03-27 22:20:00,
2013-03-27 16:27:00,57.9,33.7,29.94,East,92,6.7,10.0,40,0.00,SCT,SCT,0.00,494.0,WeatherDisplay:10.37,2013-03-27 22:27:00,
2013-03-27 16:34:00,57.0,34.1,29.95,ESE,123,0.4,3.4,42,0.00,SCT,SCT,0.00,213.0,WeatherDisplay:10.37,2013-03-27 22:34:00,
2013-03-27 16:41:00,56.2,33.4,29.97,ENE,66,4.2,4.2,42,0.00,SCT,SCT,0.00,385.0,WeatherDisplay:10.37,2013-03-27 22:41:00,
2013-03-27 16:48:00,56.1,33.9,29.97,NNE,31,3.3,6.9,43,0.00,SCT,SCT,0.00,438.0,WeatherDisplay:10.37,2013-03-27 22:48:00,
2013-03-27 16:55:00,56.3,34.1,29.96,ESE,105,2.0,6.9,43,0.00,SCT,SCT,0.00,485.0,WeatherDisplay:10.37,2013-03-27 22:55:00,
2013-03-27 17:02:00,56.6,34.3,29.95,East,80,6.5,13.8,43,0.00,SCT,SCT,0.00,431.0,WeatherDisplay:10.37,2013-03-27 23:02:00,
2013-03-27 17:08:00,56.4,34.2,29.95,East,94,4.5,9.2,43,0.00,SCT,SCT,0.00,399.0,WeatherDisplay:10.37,2013-03-27 23:08:00,
2013-03-27 17:15:00,55.8,34.2,29.95,East,86,7.7,11.5,44,0.00,SCT,SCT,0.00,383.0,WeatherDisplay:10.37,2013-03-27 23:15:00,
2013-03-27 17:22:00,55.5,35.0,29.95,ESE,102,7.4,14.9,46,0.00,SCT,SCT,0.00,357.0,WeatherDisplay:10.37,2013-03-27 23:22:00,
2013-03-27 17:29:00,54.9,34.5,29.96,ESE,107,5.0,11.0,46,0.00,SCT,SCT,0.00,304.0,WeatherDisplay:10.37,2013-03-27 23:29:00,
2013-03-27 17:36:00,54.6,34.2,29.96,East,89,7.9,14.9,46,0.00,SCT,SCT,0.00,260.0,WeatherDisplay:10.37,2013-03-27 23:36:00,
2013-03-27 17:43:00,54.0,34.7,29.96,SE,126,4.9,11.5,48,0.00,SCT,SCT,0.00,292.0,WeatherDisplay:10.37,2013-03-27 23:43:00,
2013-03-27 17:50:00,54.2,34.4,29.97,SE,143,9.5,11.5,47,0.00,SCT,SCT,0.00,260.0,WeatherDisplay:10.37,2013-03-27 23:50:00,
2013-03-27 17:57:00,54.1,35.3,29.97,ESE,102,7.0,13.8,49,0.00,SCT,SCT,0.00,167.0,WeatherDisplay:10.37,2013-03-27 23:57:00,
2013-03-27 18:04:00,53.7,34.5,29.97,ESE,118,7.2,10.3,48,0.00,SCT,SCT,0.00,243.0,WeatherDisplay:10.37,2013-03-28 00:04:00,
2013-03-27 18:11:00,53.5,35.3,29.98,ESE,121,7.8,10.3,50,0.00,SCT,SCT,0.00,209.0,WeatherDisplay:10.37,2013-03-28 00:11:00,
2013-03-27 18:18:00,53.3,35.1,29.99,ESE,104,3.3,9.2,50,0.00,SCT,SCT,0.00,176.0,WeatherDisplay:10.37,2013-03-28 00:18:00,
2013-03-27 18:25:00,53.3,34.1,29.99,ESE,120,6.3,6.9,48,0.00,SCT,SCT,0.00,142.0,WeatherDisplay:10.37,2013-03-28 00:25:00,
2013-03-27 18:32:00,53.2,34.0,29.99,ESE,123,4.7,11.5,48,0.00,SCT,SCT,0.00,97.0,WeatherDisplay:10.37,2013-03-28 00:32:00,
2013-03-27 18:39:00,52.8,33.6,29.99,ESE,109,3.2,4.6,48,0.00,SCT,SCT,0.00,44.0,WeatherDisplay:10.37,2013-03-28 00:39:00,
2013-03-27 18:46:00,52.3,33.7,30.00,East,101,4.2,5.8,49,0.00,SCT,SCT,0.00,33.0,WeatherDisplay:10.37,2013-03-28 00:46:00,
2013-03-27 18:53:00,51.9,33.8,30.00,East,90,4.8,6.9,50,0.00,SCT,SCT,0.00,21.0,WeatherDisplay:10.37,2013-03-28 00:53:00,
2013-03-27 19:00:00,51.5,33.5,29.99,ENE,57,2.8,4.0,50,0.00,SCT,SCT,0.00,16.0,WeatherDisplay:10.37,2013-03-28 01:00:00,
2013-03-27 19:07:00,51.2,33.7,30.00,ENE,67,1.1,3.4,51,0.00,BKN,BKN,0.00,11.0,WeatherDisplay:10.37,2013-03-28 01:07:00,
2013-03-27 19:14:00,50.8,33.8,30.00,NE,44,1.5,2.3,52,0.00,BKN,BKN,0.00,5.0,WeatherDisplay:10.37,2013-03-28 01:14:00,
2013-03-27 19:21:00,50.6,34.1,30.00,NE,44,1.8,3.4,53,0.00,BKN,BKN,0.00,0.0,WeatherDisplay:10.37,2013-03-28 01:21:00,
2013-03-27 19:28:00,50.3,34.3,30.01,North,355,2.2,3.4,54,0.00,BKN,BKN,0.00,0.0,WeatherDisplay:10.37,2013-03-28 01:28:00,
2013-03-27 19:35:00,49.9,34.4,30.02,North,9,1.5,3.0,55,0.00,BKN,BKN,0.00,0.0,WeatherDisplay:10.37,2013-03-28 01:35:00,
2013-03-27 19:42:00,49.6,34.1,30.02,NNE,22,1.9,3.4,55,0.00,BKN,BKN,0.00,0.0,WeatherDisplay:10.37,2013-03-28 01:42:00,
2013-03-27 19:49:00,49.2,34.2,30.02,NNE,22,1.1,3.4,56,0.00,BKN,BKN,0.00,0.0,WeatherDisplay:10.37,2013-03-28 01:49:00,
2013-03-27 19:56:00,48.9,34.3,30.02,NNE,22,0.0,2.3,57,0.00,BKN,BKN,0.00,0.0,WeatherDisplay:10.37,2013-03-28 01:56:00,
2013-03-27 20:03:00,48.6,34.0,29.99,NNE,22,0.3,1.1,57,0.00,BKN,BKN,0.00,0.0,WeatherDisplay:10.37,2013-03-28 02:03:00,
2013-03-27 20:10:00,48.2,34.5,30.00,NNE,15,0.3,3.4,59,0.00,BKN,BKN,0.00,0.0,WeatherDisplay:10.37,2013-03-28 02:10:00,
2013-03-27 20:17:00,47.9,34.7,30.00,North,11,1.1,2.3,60,0.00,BKN,BKN,0.00,0.0,WeatherDisplay:10.37,2013-03-28 02:17:00,
2013-03-27 20:24:00,47.6,34.8,30.00,North,11,0.0,1.1,61,0.00,SCT,SCT,0.00,0.0,WeatherDisplay:10.37,2013-03-28 02:24:00,
2013-03-27 20:31:00,47.3,34.9,30.02,North,11,1.5,3.4,62,0.00,SCT,SCT,0.00,0.0,WeatherDisplay:10.37,2013-03-28 02:31:00,
2013-03-27 20:38:00,46.8,34.5,30.02,North,11,0.0,0.0,62,0.00,SCT,SCT,0.00,0.0,WeatherDisplay:10.37,2013-03-28 02:38:00,
2013-03-27 20:45:00,46.5,34.6,30.02,North,10,0.0,0.0,63,0.00,SCT,SCT,0.00,0.0,WeatherDisplay:10.37,2013-03-28 02:45:00,
2013-03-27 20:52:00,46.2,34.3,30.03,North,11,0.8,2.3,63,0.00,SCT,SCT,0.00,0.0,WeatherDisplay:10.37,2013-03-28 02:52:00,
2013-03-27 20:59:00,45.8,34.3,30.03,North,11,0.3,0.0,64,0.00,SCT,SCT,0.00,0.0,WeatherDisplay:10.37,2013-03-28 02:59:00,
2013-03-27 21:06:00,45.5,34.4,30.01,North,10,0.0,0.0,65,0.00,SCT,SCT,0.00,0.0,WeatherDisplay:10.37,2013-03-28 03:06:00,
2013-03-27 21:13:00,45.1,34.0,30.01,North,11,0.6,2.0,65,0.00,SCT,SCT,0.00,0.0,WeatherDisplay:10.37,2013-03-28 03:13:00,
2013-03-27 21:20:00,44.8,34.1,30.01,North,10,0.0,0.0,66,0.00,SCT,SCT,0.00,0.0,WeatherDisplay:10.37,2013-03-28 03:20:00,
2013-03-27 21:27:00,44.5,33.8,30.01,North,10,0.0,0.0,66,0.00,SCT,SCT,0.00,0.0,WeatherDisplay:10.37,2013-03-28 03:27:00,
2013-03-27 21:34:00,44.2,33.9,30.02,North,10,0.0,0.0,67,0.00,SCT,SCT,0.00,0.0,WeatherDisplay:10.37,2013-03-28 03:34:00,
2013-03-27 21:41:00,44.0,34.1,30.03,North,11,0.0,0.0,68,0.00,SCT,SCT,0.00,0.0,WeatherDisplay:10.37,2013-03-28 03:41:00,
2013-03-27 21:48:00,43.7,33.8,30.03,North,10,1.4,2.3,68,0.00,SCT,SCT,0.00,0.0,WeatherDisplay:10.37,2013-03-28 03:48:00,
2013-03-27 21:55:00,43.4,33.9,30.03,North,10,0.0,0.0,69,0.00,SCT,SCT,0.00,0.0,WeatherDisplay:10.37,2013-03-28 03:55:00,
2013-03-27 22:02:00,43.2,33.7,30.02,North,11,0.0,0.0,69,0.00,SCT,SCT,0.00,0.0,WeatherDisplay:10.37,2013-03-28 04:02:00,
2013-03-27 22:09:00,43.1,34.0,30.02,North,11,0.0,0.0,70,0.00,SCT,SCT,0.00,0.0,WeatherDisplay:10.37,2013-03-28 04:09:00,
2013-03-27 22:16:00,42.9,33.8,30.02,North,11,0.0,0.0,70,0.00,SCT,SCT,0.00,0.0,WeatherDisplay:10.37,2013-03-28 04:16:00,
2013-03-27 22:23:00,42.7,33.6,30.02,North,10,0.0,0.0,70,0.00,SCT,SCT,0.00,0.0,WeatherDisplay:10.37,2013-03-28 04:23:00,
2013-03-27 22:30:00,42.5,33.4,30.02,North,10,0.0,0.0,70,0.00,SCT,SCT,0.00,0.0,WeatherDisplay:10.37,2013-03-28 04:30:00,
2013-03-27 22:37:00,42.2,33.5,30.02,North,11,0.0,0.0,71,0.00,SCT,SCT,0.00,0.0,WeatherDisplay:10.37,2013-03-28 04:37:00,
2013-03-27 22:44:00,41.9,33.2,30.02,North,11,0.0,0.0,71,0.00,SCT,SCT,0.00,0.0,WeatherDisplay:10.37,2013-03-28 04:44:00,
2013-03-27 22:51:00,41.6,33.2,30.02,North,11,0.0,0.0,72,0.00,SCT,SCT,0.00,0.0,WeatherDisplay:10.37,2013-03-28 04:51:00,
2013-03-27 22:58:00,41.4,33.0,30.03,North,11,0.0,0.0,72,0.00,SCT,SCT,0.00,0.0,WeatherDisplay:10.37,2013-03-28 04:58:00,
2013-03-27 23:05:00,41.2,33.2,30.01,North,11,0.0,0.0,73,0.00,SCT,SCT,0.00,0.0,WeatherDisplay:10.37,2013-03-28 05:05:00,
2013-03-27 23:12:00,41.0,33.0,30.01,North,10,0.0,0.0,73,0.00,SCT,SCT,0.00,0.0,WeatherDisplay:10.37,2013-03-28 05:12:00,
2013-03-27 23:19:00,40.9,33.2,30.01,North,11,0.0,0.0,74,0.00,SCT,SCT,0.00,0.0,WeatherDisplay:10.37,2013-03-28 05:19:00,
2013-03-27 23:26:00,40.7,33.1,30.01,North,11,0.0,0.0,74,0.00,SCT,SCT,0.00,0.0,WeatherDisplay:10.37,2013-03-28 05:26:00,
2013-03-27 23:33:00,40.5,33.2,30.01,North,11,0.0,0.0,75,0.00,SCT,SCT,0.00,0.0,WeatherDisplay:10.37,2013-03-28 05:33:00,
2013-03-27 23:40:00,40.4,33.1,30.00,North,11,0.0,0.0,75,0.00,SCT,SCT,0.00,0.0,WeatherDisplay:10.37,2013-03-28 05:40:00,
2013-03-27 23:47:00,40.1,32.8,30.00,North,10,0.0,0.0,75,0.00,SCT,SCT,0.00,0.0,WeatherDisplay:10.37,2013-03-28 05:47:00,
2013-03-27 23:54:00,40.0,33.0,30.00,North,11,0.0,0.0,76,0.00,SCT,SCT,0.00,0.0,WeatherDisplay:10.37,2013-03-28 05:54:00,